Time;durP1;ratioP1;P1;durP2;ratioP2;P2;SDS_P1;SDS_P2;PMS_P1;PMS_P2;Temp;Humidity;BMP_temperature;BMP_pressure;BME280_temperature;BME280_humidity;BME280_pressure;Samples;Min_cycle;Max_cycle;Signal;HPM_P1;HPM_P2
2023/07/29 02:01:21;;;;;;;11.88;8.40;;;;;;;;;;4649787;28;20085;-84
2023/07/29 02:03:54;;;;;;;17.65;9.50;;;;;;;;;;4268606;33;20072;-82
2023/07/29 02:06:20;;;;;;;17.65;9.85;;;;;;;;;;4268850;33;20046;-81
2023/07/29 02:08:46;;;;;;;16.73;9.80;;;;;;;;;;4269567;33;20353;-84
2023/07/29 02:11:13;;;;;;;13.32;10.20;;;;;;;;;;4265097;33;20577;-83
2023/07/29 02:13:39;;;;;;;15.82;11.15;;;;;;;;;;4238855;33;20090;-83
2023/07/29 02:16:05;;;;;;;15.73;10.10;;;;;;;;;;4237321;33;20068;-82
2023/07/29 02:18:32;;;;;;;20.02;10.95;;;;;;;;;;4237408;33;20461;-85
2023/07/29 02:20:58;;;;;;;19.23;10.80;;;;;;;;;;4238265;33;20039;-82
2023/07/29 02:23:24;;;;;;;16.35;10.95;;;;;;;;;;4237884;33;20468;-84
2023/07/29 02:25:50;;;;;;;16.30;10.65;;;;;;;;;;4238037;33;20060;-81
2023/07/29 02:28:16;;;;;;;16.77;10.30;;;;;;;;;;4238516;33;20087;-82
2023/07/29 02:30:46;;;;;;;24.20;10.43;;;;;;;;;;4238035;33;20441;-83
2023/07/29 02:33:13;;;;;;;34.40;11.82;;;;;;;;;;4234498;33;20068;-85
2023/07/29 02:35:39;;;;;;;24.02;12.45;;;;;;;;;;4223938;33;20181;-87
2023/07/29 02:38:05;;;;;;;17.05;11.40;;;;;;;;;;4237822;33;20467;-87
2023/07/29 02:40:32;;;;;;;24.60;11.70;;;;;;;;;;4237108;33;20418;-87
2023/07/29 02:42:58;;;;;;;24.27;12.35;;;;;;;;;;4236936;33;20068;-85
2023/07/29 02:45:24;;;;;;;31.80;12.23;;;;;;;;;;4248233;33;20376;-88
2023/07/29 02:47:50;;;;;;;61.20;12.85;;;;;;;;;;4254238;33;20079;-85
2023/07/29 02:50:17;;;;;;;378.25;21.33;;;;;;;;;;4254222;33;20060;-87
2023/07/29 02:52:43;;;;;;;115.00;17.23;;;;;;;;;;4253554;33;20054;-91
2023/07/29 02:55:09;;;;;;;438.80;19.50;;;;;;;;;;4252823;33;20065;-82
2023/07/29 02:57:35;;;;;;;279.25;17.55;;;;;;;;;;4252922;33;20076;-83
2023/07/29 03:00:01;;;;;;;352.90;19.77;;;;;;;;;;4260164;33;20057;-82
2023/07/29 03:02:28;;;;;;;304.98;17.05;;;;;;;;;;4266709;33;20093;-83
2023/07/29 03:04:54;;;;;;;192.25;17.35;;;;;;;;;;4268709;33;20118;-83
2023/07/29 03:07:21;;;;;;;414.83;20.48;;;;;;;;;;4266193;33;20050;-82
2023/07/29 03:09:47;;;;;;;288.20;18.77;;;;;;;;;;4266611;33;20096;-82
2023/07/29 03:12:13;;;;;;;222.27;17.10;;;;;;;;;;4237958;33;20046;-82
2023/07/29 03:14:41;;;;;;;351.23;20.98;;;;;;;;;;4237784;33;20060;-84
2023/07/29 03:17:07;;;;;;;313.50;20.00;;;;;;;;;;4236635;33;20058;-85
2023/07/29 03:19:33;;;;;;;247.95;17.40;;;;;;;;;;4236219;33;20507;-85
2023/07/29 03:21:59;;;;;;;208.85;17.45;;;;;;;;;;4237075;33;20124;-82
2023/07/29 03:24:26;;;;;;;398.40;20.35;;;;;;;;;;4236880;33;20064;-81
2023/07/29 03:26:52;;;;;;;303.90;18.95;;;;;;;;;;4236862;33;20083;-81
2023/07/29 03:29:18;;;;;;;233.87;18.98;;;;;;;;;;4237243;33;20253;-81
2023/07/29 03:31:44;;;;;;;265.65;18.58;;;;;;;;;;4235697;33;20039;-81
2023/07/29 03:34:12;;;;;;;395.40;22.80;;;;;;;;;;4237629;33;20076;-81
2023/07/29 03:36:39;;;;;;;342.55;20.25;;;;;;;;;;4236710;33;20167;-82
2023/07/29 03:39:05;;;;;;;271.55;17.27;;;;;;;;;;4236971;33;20043;-81
2023/07/29 03:41:31;;;;;;;205.90;17.12;;;;;;;;;;4236387;33;20203;-81
2023/07/29 03:43:57;;;;;;;254.38;18.77;;;;;;;;;;4234626;33;20051;-80
2023/07/29 03:46:24;;;;;;;199.40;16.27;;;;;;;;;;4237328;33;20071;-81
2023/07/29 03:48:50;;;;;;;208.57;16.30;;;;;;;;;;4235821;33;20447;-81
2023/07/29 03:51:16;;;;;;;176.27;16.10;;;;;;;;;;4235609;33;20054;-80
2023/07/29 03:53:42;;;;;;;169.05;14.60;;;;;;;;;;4233720;33;20046;-80
2023/07/29 03:56:09;;;;;;;241.98;16.20;;;;;;;;;;4236701;33;20080;-81
2023/07/29 03:58:35;;;;;;;304.55;17.42;;;;;;;;;;4237361;33;20110;-84
2023/07/29 04:01:02;;;;;;;370.88;17.20;;;;;;;;;;4240630;33;20107;-85
2023/07/29 04:03:28;;;;;;;321.90;16.33;;;;;;;;;;4251114;33;20050;-84
2023/07/29 04:05:55;;;;;;;206.60;19.25;;;;;;;;;;4249183;33;20793;-81
2023/07/29 04:08:21;;;;;;;373.70;18.00;;;;;;;;;;4221388;33;20069;-82
2023/07/29 04:10:48;;;;;;;265.42;18.17;;;;;;;;;;4222569;34;20133;-81
2023/07/29 04:13:14;;;;;;;268.02;17.85;;;;;;;;;;4244119;33;20413;-81
2023/07/29 04:15:40;;;;;;;212.40;15.43;;;;;;;;;;4249801;33;20046;-82
2023/07/29 04:18:06;;;;;;;191.57;17.75;;;;;;;;;;4248411;33;20507;-81
2023/07/29 04:20:33;;;;;;;192.70;15.60;;;;;;;;;;4253030;33;20076;-85
2023/07/29 04:22:59;;;;;;;254.27;16.67;;;;;;;;;;4253408;33;20042;-85
2023/07/29 04:25:26;;;;;;;238.93;15.18;;;;;;;;;;4252607;33;20045;-85
2023/07/29 04:27:52;;;;;;;197.57;14.57;;;;;;;;;;4251995;33;20149;-85
2023/07/29 04:30:18;;;;;;;244.43;15.93;;;;;;;;;;4236149;33;20047;-85
2023/07/29 04:32:48;;;;;;;179.82;14.77;;;;;;;;;;4236629;33;20049;-87
2023/07/29 04:35:14;;;;;;;349.80;16.87;;;;;;;;;;4194653;34;20043;-86
2023/07/29 04:37:40;;;;;;;250.77;15.25;;;;;;;;;;4165319;34;20095;-86
2023/07/29 04:40:07;;;;;;;111.53;14.70;;;;;;;;;;4180538;34;20062;-86
2023/07/29 04:42:33;;;;;;;117.60;14.63;;;;;;;;;;4195288;34;20069;-86
2023/07/29 04:44:59;;;;;;;276.23;16.70;;;;;;;;;;4181511;34;20069;-87
2023/07/29 04:47:25;;;;;;;185.88;15.65;;;;;;;;;;4180642;34;20040;-87
2023/07/29 04:49:52;;;;;;;135.60;16.20;;;;;;;;;;4181672;34;20052;-85
2023/07/29 04:52:19;;;;;;;173.10;15.18;;;;;;;;;;4183071;34;20445;-88
2023/07/29 04:54:46;;;;;;;111.90;14.43;;;;;;;;;;4192615;34;20531;-88
2023/07/29 04:57:12;;;;;;;82.62;13.65;;;;;;;;;;4196027;34;20426;-90
2023/07/29 04:59:38;;;;;;;105.70;13.90;;;;;;;;;;4194973;34;20513;-89
2023/07/29 05:02:04;;;;;;;79.15;14.10;;;;;;;;;;4194218;34;20479;-84
2023/07/29 05:04:33;;;;;;;104.10;14.73;;;;;;;;;;4191444;34;20069;-86
2023/07/29 05:06:59;;;;;;;99.95;14.68;;;;;;;;;;4206430;34;20066;-88
2023/07/29 05:09:26;;;;;;;175.25;18.25;;;;;;;;;;4185356;34;20081;-86
2023/07/29 05:11:52;;;;;;;117.82;14.80;;;;;;;;;;4195325;34;20047;-86
2023/07/29 05:14:18;;;;;;;95.38;14.82;;;;;;;;;;4194452;34;20051;-89
2023/07/29 05:16:45;;;;;;;94.62;15.27;;;;;;;;;;4194026;34;20069;-87
2023/07/29 05:19:11;;;;;;;169.50;14.77;;;;;;;;;;4180377;34;20989;-86
2023/07/29 05:21:39;;;;;;;81.25;14.55;;;;;;;;;;4189210;34;20090;-88
2023/07/29 05:24:05;;;;;;;117.28;14.55;;;;;;;;;;4191639;34;20069;-88
2023/07/29 05:26:31;;;;;;;81.50;14.13;;;;;;;;;;4193480;34;20124;-86
2023/07/29 05:28:58;;;;;;;33.83;12.30;;;;;;;;;;4193989;34;20125;-86
2023/07/29 05:31:24;;;;;;;36.92;12.63;;;;;;;;;;4186944;34;20054;-89
2023/07/29 05:33:50;;;;;;;20.15;12.15;;;;;;;;;;4190857;34;20055;-91
2023/07/29 05:36:16;;;;;;;27.92;13.32;;;;;;;;;;4191574;34;20040;-90
2023/07/29 05:38:43;;;;;;;19.52;12.63;;;;;;;;;;4221401;34;20539;-84
2023/07/29 05:41:09;;;;;;;21.70;13.27;;;;;;;;;;4221867;34;20432;-88
2023/07/29 05:43:35;;;;;;;26.17;12.85;;;;;;;;;;4220104;34;20062;-88
2023/07/29 05:46:01;;;;;;;19.17;13.52;;;;;;;;;;4217622;34;20046;-87
2023/07/29 05:48:28;;;;;;;18.15;11.73;;;;;;;;;;4219938;34;20265;-86
2023/07/29 05:50:54;;;;;;;23.80;13.68;;;;;;;;;;4232612;33;20114;-86
2023/07/29 05:53:21;;;;;;;34.15;15.73;;;;;;;;;;4236291;33;20218;-85
2023/07/29 05:55:47;;;;;;;25.15;14.43;;;;;;;;;;4235239;33;20454;-84
2023/07/29 05:58:13;;;;;;;43.08;25.00;;;;;;;;;;4234866;33;20448;-84
2023/07/29 06:00:39;;;;;;;37.83;20.23;;;;;;;;;;4206980;34;20048;-86
2023/07/29 06:03:06;;;;;;;27.50;17.25;;;;;;;;;;4191292;34;20066;-87
2023/07/29 06:05:32;;;;;;;21.05;12.45;;;;;;;;;;4179917;34;20119;-87
2023/07/29 06:07:58;;;;;;;17.05;10.85;;;;;;;;;;4152003;34;20052;-88
2023/07/29 06:10:26;;;;;;;22.77;11.40;;;;;;;;;;4156300;34;20070;-85
2023/07/29 06:12:52;;;;;;;15.80;10.32;;;;;;;;;;4150113;34;20044;-86
2023/07/29 06:15:21;;;;;;;17.52;10.77;;;;;;;;;;4159667;34;20100;-85
2023/07/29 06:17:48;;;;;;;22.48;11.15;;;;;;;;;;4152011;34;20133;-79
2023/07/29 06:20:14;;;;;;;17.25;11.35;;;;;;;;;;4163223;34;20073;-87
2023/07/29 06:22:41;;;;;;;18.12;10.50;;;;;;;;;;4177710;34;20065;-87
2023/07/29 06:25:07;;;;;;;19.45;10.15;;;;;;;;;;4180094;34;20855;-85
2023/07/29 06:27:33;;;;;;;14.55;9.65;;;;;;;;;;4178550;34;20868;-89
2023/07/29 06:29:59;;;;;;;16.98;11.70;;;;;;;;;;4167436;34;20051;-86
2023/07/29 06:32:26;;;;;;;20.95;11.68;;;;;;;;;;4178050;34;20061;-86
2023/07/29 06:34:54;;;;;;;18.05;9.90;;;;;;;;;;4181455;34;20078;-86
2023/07/29 06:37:20;;;;;;;15.52;9.70;;;;;;;;;;4163668;34;20060;-86
2023/07/29 06:39:46;;;;;;;12.70;9.35;;;;;;;;;;4196273;34;20070;-87
2023/07/29 06:42:13;;;;;;;13.07;8.80;;;;;;;;;;4210631;34;20090;-88
2023/07/29 06:44:39;;;;;;;8.57;6.35;;;;;;;;;;4209667;34;20806;-85
2023/07/29 06:47:06;;;;;;;10.20;6.87;;;;;;;;;;4210433;34;20051;-87
2023/07/29 06:49:32;;;;;;;9.38;6.85;;;;;;;;;;4210066;34;20069;-87
2023/07/29 06:51:58;;;;;;;11.77;8.30;;;;;;;;;;4208206;34;20509;-85
2023/07/29 06:54:25;;;;;;;11.95;7.90;;;;;;;;;;4209100;34;20074;-85
2023/07/29 06:56:52;;;;;;;8.77;7.03;;;;;;;;;;4209999;34;20098;-86
2023/07/29 06:59:18;;;;;;;13.70;7.87;;;;;;;;;;4209010;34;20370;-84
2023/07/29 07:01:45;;;;;;;10.50;8.05;;;;;;;;;;4219399;33;20076;-85
2023/07/29 07:04:10;;;;;;;11.98;8.77;;;;;;;;;;4207932;34;20051;-87
2023/07/29 07:06:37;;;;;;;12.65;9.15;;;;;;;;;;4210930;34;20425;-85
2023/07/29 07:09:03;;;;;;;12.02;8.05;;;;;;;;;;4227850;33;20037;-87
2023/07/29 07:11:29;;;;;;;15.00;7.93;;;;;;;;;;4242847;33;20869;-85
2023/07/29 07:13:55;;;;;;;13.20;7.37;;;;;;;;;;4225707;33;20039;-84
2023/07/29 07:16:21;;;;;;;9.52;6.65;;;;;;;;;;4237260;33;20054;-86
2023/07/29 07:18:47;;;;;;;6.15;5.53;;;;;;;;;;4240470;33;20437;-85
2023/07/29 07:21:14;;;;;;;10.65;6.90;;;;;;;;;;4238495;33;20068;-87
2023/07/29 07:23:40;;;;;;;9.75;6.93;;;;;;;;;;4245688;33;20054;-84
2023/07/29 07:26:06;;;;;;;13.57;6.80;;;;;;;;;;4208482;34;20051;-84
2023/07/29 07:28:32;;;;;;;7.82;6.15;;;;;;;;;;4208161;34;20081;-87
2023/07/29 07:30:59;;;;;;;7.12;6.32;;;;;;;;;;4203406;34;20484;-84
2023/07/29 07:33:25;;;;;;;10.25;6.45;;;;;;;;;;4199087;34;20085;-87
2023/07/29 07:35:51;;;;;;;7.80;6.05;;;;;;;;;;4203175;34;20055;-90
2023/07/29 07:38:17;;;;;;;8.70;4.93;;;;;;;;;;4166588;34;20163;-85
2023/07/29 07:40:51;;;;;;;5.03;4.53;;;;;;;;;;4195481;34;20054;-87
2023/07/29 07:43:18;;;;;;;4.60;4.15;;;;;;;;;;4185129;34;20059;-83
2023/07/29 07:45:44;;;;;;;14.02;4.22;;;;;;;;;;4195859;34;20077;-87
2023/07/29 07:48:11;;;;;;;14.50;5.75;;;;;;;;;;4196802;34;20055;-82
2023/07/29 07:50:38;;;;;;;10.60;5.30;;;;;;;;;;4192681;34;20055;-82
2023/07/29 07:53:04;;;;;;;9.07;4.50;;;;;;;;;;4200814;34;20051;-83
2023/07/29 07:55:30;;;;;;;5.72;5.03;;;;;;;;;;4202388;34;20085;-85
2023/07/29 07:57:57;;;;;;;8.13;3.95;;;;;;;;;;4218809;33;20058;-86
2023/07/29 08:00:23;;;;;;;4.20;3.83;;;;;;;;;;4232491;33;20068;-88
2023/07/29 08:02:49;;;;;;;5.78;3.50;;;;;;;;;;4221901;33;20077;-85
2023/07/29 08:05:15;;;;;;;8.32;3.17;;;;;;;;;;4213725;34;20523;-85
2023/07/29 08:07:41;;;;;;;3.03;2.83;;;;;;;;;;4213881;33;20098;-83
2023/07/29 08:10:08;;;;;;;3.50;3.25;;;;;;;;;;4245642;33;20042;-87
2023/07/29 08:12:34;;;;;;;2.58;2.37;;;;;;;;;;4252247;33;21354;-85
2023/07/29 08:15:00;;;;;;;2.45;2.28;;;;;;;;;;4250637;33;20064;-87
2023/07/29 08:17:27;;;;;;;2.70;2.50;;;;;;;;;;4239769;33;20056;-83
2023/07/29 08:19:53;;;;;;;2.75;2.55;;;;;;;;;;4242532;33;20363;-83
2023/07/29 08:22:20;;;;;;;7.82;2.90;;;;;;;;;;4214100;34;20031;-88
2023/07/29 08:24:46;;;;;;;4.03;3.72;;;;;;;;;;4212777;34;20077;-86
2023/07/29 08:27:12;;;;;;;3.75;3.42;;;;;;;;;;4194682;34;20188;-89
2023/07/29 08:29:39;;;;;;;3.40;3.20;;;;;;;;;;4196798;34;20957;-85
2023/07/29 08:32:05;;;;;;;4.60;3.83;;;;;;;;;;4191750;34;20100;-86
2023/07/29 08:34:31;;;;;;;4.62;3.33;;;;;;;;;;4203283;34;20079;-86
2023/07/29 08:36:57;;;;;;;4.45;2.75;;;;;;;;;;4202799;34;20047;-86
2023/07/29 08:39:24;;;;;;;2.40;2.30;;;;;;;;;;4199539;34;20065;-86
2023/07/29 08:42:06;;;;;;;9.40;2.25;;;;;;;;;;4201008;34;20057;-86
2023/07/29 08:44:37;;;;;;;2.30;2.20;;;;;;;;;;4200285;34;20525;-87
2023/07/29 08:47:04;;;;;;;2.20;2.10;;;;;;;;;;4184988;34;20355;-88
2023/07/29 08:49:31;;;;;;;3.30;2.62;;;;;;;;;;4153757;34;20185;-87
2023/07/29 08:51:59;;;;;;;4.25;1.70;;;;;;;;;;4155887;34;20226;-85
2023/07/29 08:54:25;;;;;;;2.53;2.40;;;;;;;;;;4164764;34;20048;-85
2023/07/29 08:56:52;;;;;;;2.37;2.22;;;;;;;;;;4155119;34;20091;-86
2023/07/29 08:59:19;;;;;;;2.70;2.10;;;;;;;;;;4163373;34;20115;-88
2023/07/29 09:01:45;;;;;;;2.67;1.85;;;;;;;;;;4177847;34;20051;-87
2023/07/29 09:04:12;;;;;;;2.33;1.73;;;;;;;;;;4195459;34;20077;-86
2023/07/29 09:06:39;;;;;;;1.87;1.77;;;;;;;;;;4213475;34;20073;-84
2023/07/29 09:09:07;;;;;;;2.53;1.75;;;;;;;;;;4188884;34;20130;-88
2023/07/29 09:11:33;;;;;;;1.50;1.50;;;;;;;;;;4178827;34;20051;-84
2023/07/29 09:14:00;;;;;;;2.05;1.80;;;;;;;;;;4173293;34;20357;-87
2023/07/29 09:16:26;;;;;;;2.60;2.40;;;;;;;;;;4159880;34;20429;-87
2023/07/29 09:18:52;;;;;;;4.35;2.10;;;;;;;;;;4162722;34;20048;-88
2023/07/29 09:21:28;;;;;;;2.50;2.00;;;;;;;;;;4174411;34;20199;-90
2023/07/29 09:23:55;;;;;;;2.10;2.00;;;;;;;;;;4178195;34;20095;-86
2023/07/29 09:26:24;;;;;;;1.60;1.55;;;;;;;;;;4180075;34;20052;-89
2023/07/29 09:28:54;;;;;;;5.68;2.10;;;;;;;;;;4181323;34;20379;-89
2023/07/29 09:31:21;;;;;;;2.20;1.83;;;;;;;;;;4190795;34;20047;-85
2023/07/29 09:33:47;;;;;;;1.80;1.70;;;;;;;;;;4187809;34;20051;-86
2023/07/29 09:36:13;;;;;;;3.17;2.15;;;;;;;;;;4188963;34;20077;-86
2023/07/29 09:38:40;;;;;;;1.83;1.70;;;;;;;;;;4190989;34;20091;-87
2023/07/29 09:41:06;;;;;;;1.65;1.65;;;;;;;;;;4232013;33;20114;-85
2023/07/29 09:43:34;;;;;;;1.62;1.52;;;;;;;;;;4223780;33;20054;-88
2023/07/29 09:46:03;;;;;;;1.70;1.60;;;;;;;;;;4227734;33;20034;-83
2023/07/29 09:48:36;;;;;;;3.60;2.37;;;;;;;;;;4231733;33;20075;-84
2023/07/29 09:51:12;;;;;;;1.95;1.85;;;;;;;;;;4226554;33;20043;-85
2023/07/29 09:53:48;;;;;;;2.03;1.90;;;;;;;;;;4253150;33;20105;-84
2023/07/29 09:56:14;;;;;;;2.60;2.12;;;;;;;;;;4216288;34;20039;-81
2023/07/29 09:58:42;;;;;;;8.80;1.98;;;;;;;;;;4212544;34;20386;-86
2023/07/29 10:01:08;;;;;;;4.70;1.50;;;;;;;;;;4210836;34;20042;-88
2023/07/29 10:03:35;;;;;;;1.90;1.80;;;;;;;;;;4224355;33;20138;-85
2023/07/29 10:06:05;;;;;;;5.03;1.70;;;;;;;;;;4231037;33;20043;-89
2023/07/29 10:08:40;;;;;;;11.55;2.42;;;;;;;;;;4231221;33;21001;-86
2023/07/29 10:11:07;;;;;;;2.45;2.12;;;;;;;;;;4233070;33;20072;-87
2023/07/29 10:13:33;;;;;;;2.75;2.22;;;;;;;;;;4223178;34;20468;-88
2023/07/29 10:16:03;;;;;;;2.03;1.90;;;;;;;;;;4206932;34;20055;-86
2023/07/29 10:18:30;;;;;;;5.10;1.90;;;;;;;;;;4209153;34;20043;-84
2023/07/29 10:20:57;;;;;;;3.40;1.95;;;;;;;;;;4209652;34;20066;-84
2023/07/29 10:23:24;;;;;;;2.00;1.90;;;;;;;;;;4210627;34;20089;-84
2023/07/29 10:26:09;;;;;;;4.65;1.40;;;;;;;;;;4204637;34;20043;-85
2023/07/29 10:28:39;;;;;;;1.65;1.60;;;;;;;;;;4209953;34;20043;-85
2023/07/29 10:31:09;;;;;;;1.40;1.40;;;;;;;;;;4210208;34;20146;-85
2023/07/29 10:33:36;;;;;;;1.80;1.70;;;;;;;;;;4217891;33;20141;-85
2023/07/29 10:36:02;;;;;;;2.05;1.95;;;;;;;;;;4235218;33;20042;-85
2023/07/29 10:38:29;;;;;;;2.80;1.62;;;;;;;;;;4236799;33;20064;-86
2023/07/29 10:41:01;;;;;;;3.15;2.00;;;;;;;;;;4237359;33;20455;-84
2023/07/29 10:43:35;;;;;;;4.68;1.75;;;;;;;;;;4236785;33;20051;-84
2023/07/29 10:46:21;;;;;;;4.43;1.87;;;;;;;;;;4235409;33;20038;-84
2023/07/29 10:48:50;;;;;;;2.30;1.90;;;;;;;;;;4237548;33;20072;-83
2023/07/29 10:51:25;;;;;;;2.20;2.00;;;;;;;;;;4243532;33;20064;-86
2023/07/29 10:53:52;;;;;;;6.55;1.77;;;;;;;;;;4250161;33;20058;-83
2023/07/29 10:56:26;;;;;;;1.52;1.52;;;;;;;;;;4249322;33;20085;-87
2023/07/29 10:58:52;;;;;;;2.12;1.92;;;;;;;;;;4252879;33;20058;-84
2023/07/29 11:01:38;;;;;;;8.38;1.85;;;;;;;;;;4387182;28;20193;-84
2023/07/29 11:04:23;;;;;;;1.80;1.65;;;;;;;;;;4251771;33;20076;-84
2023/07/29 11:07:05;;;;;;;7.78;2.30;;;;;;;;;;4244825;33;20071;-84
2023/07/29 11:09:41;;;;;;;3.50;1.75;;;;;;;;;;4264228;33;20083;-85
2023/07/29 11:12:26;;;;;;;2.67;1.62;;;;;;;;;;4251662;33;20395;-86
2023/07/29 11:14:52;;;;;;;1.65;1.65;;;;;;;;;;4253526;33;20084;-85
2023/07/29 11:17:19;;;;;;;2.22;1.95;;;;;;;;;;4264047;33;20133;-84
2023/07/29 11:19:47;;;;;;;2.95;1.80;;;;;;;;;;4260820;33;20057;-83
2023/07/29 11:22:13;;;;;;;3.80;1.52;;;;;;;;;;4271501;33;20053;-86
2023/07/29 11:24:41;;;;;;;3.17;1.55;;;;;;;;;;4276074;33;20250;-83
2023/07/29 11:27:11;;;;;;;2.22;2.12;;;;;;;;;;4274711;33;20046;-82
2023/07/29 11:29:37;;;;;;;2.33;2.12;;;;;;;;;;4273308;33;20064;-84
2023/07/29 11:32:03;;;;;;;1.80;1.50;;;;;;;;;;4273637;33;20060;-86
2023/07/29 11:34:32;;;;;;;2.33;2.03;;;;;;;;;;4273982;33;20050;-85
2023/07/29 11:36:59;;;;;;;12.82;1.85;;;;;;;;;;4275397;33;20045;-86
2023/07/29 11:39:25;;;;;;;2.03;1.70;;;;;;;;;;4275201;33;20399;-83
2023/07/29 11:41:51;;;;;;;9.68;2.83;;;;;;;;;;4276799;33;20045;-86
2023/07/29 11:44:17;;;;;;;4.32;1.67;;;;;;;;;;4274625;33;20046;-85
2023/07/29 11:46:43;;;;;;;3.37;1.80;;;;;;;;;;4273828;33;20045;-83
2023/07/29 11:49:10;;;;;;;2.53;1.50;;;;;;;;;;4269393;33;20410;-86
2023/07/29 11:51:36;;;;;;;1.98;1.77;;;;;;;;;;4252871;33;20050;-85
2023/07/29 11:54:03;;;;;;;2.00;1.77;;;;;;;;;;4251759;33;20050;-84
2023/07/29 11:56:30;;;;;;;12.10;2.08;;;;;;;;;;4250291;33;20513;-84
2023/07/29 11:58:56;;;;;;;2.12;2.03;;;;;;;;;;4250991;33;20058;-84
2023/07/29 12:01:22;;;;;;;4.82;2.45;;;;;;;;;;4253335;33;20064;-83
2023/07/29 12:03:50;;;;;;;2.08;1.98;;;;;;;;;;4255208;33;20458;-82
2023/07/29 12:06:16;;;;;;;2.30;2.10;;;;;;;;;;4237244;33;20047;-82
2023/07/29 12:08:43;;;;;;;3.12;1.60;;;;;;;;;;4220622;34;20050;-83
2023/07/29 12:11:09;;;;;;;2.47;1.87;;;;;;;;;;4223908;34;20047;-86
2023/07/29 12:13:36;;;;;;;5.43;2.30;;;;;;;;;;4223947;34;20051;-84
2023/07/29 12:16:03;;;;;;;2.42;2.28;;;;;;;;;;4224986;33;20450;-84
2023/07/29 12:18:32;;;;;;;1.87;1.80;;;;;;;;;;4222962;33;20027;-80
2023/07/29 12:20:59;;;;;;;1.80;1.70;;;;;;;;;;4227502;33;20082;-84
2023/07/29 12:23:28;;;;;;;1.83;1.77;;;;;;;;;;4238859;33;20162;-82
2023/07/29 12:25:58;;;;;;;3.65;1.75;;;;;;;;;;4239736;33;20387;-83
2023/07/29 12:28:24;;;;;;;5.12;1.87;;;;;;;;;;4234413;33;20453;-83
2023/07/29 12:30:57;;;;;;;1.98;1.87;;;;;;;;;;4210127;34;20054;-85
2023/07/29 12:33:33;;;;;;;2.00;1.90;;;;;;;;;;4223005;33;20477;-83
2023/07/29 12:35:59;;;;;;;1.92;1.83;;;;;;;;;;4222088;34;20112;-85
2023/07/29 12:38:26;;;;;;;2.00;2.00;;;;;;;;;;4233183;33;20050;-82
2023/07/29 12:40:53;;;;;;;1.73;1.73;;;;;;;;;;4249948;33;20969;-84
2023/07/29 12:43:19;;;;;;;2.67;1.80;;;;;;;;;;4250615;33;20086;-85
2023/07/29 12:45:45;;;;;;;3.70;2.67;;;;;;;;;;4250318;33;20046;-85
2023/07/29 12:48:12;;;;;;;2.30;2.10;;;;;;;;;;4251364;33;20053;-83
2023/07/29 12:50:38;;;;;;;2.10;2.00;;;;;;;;;;4250291;33;20180;-84
2023/07/29 12:53:05;;;;;;;5.50;1.83;;;;;;;;;;4252161;33;20072;-84
2023/07/29 12:55:30;;;;;;;2.08;1.95;;;;;;;;;;4250728;33;20068;-85
2023/07/29 12:57:58;;;;;;;2.65;2.45;;;;;;;;;;4250499;33;20068;-84
2023/07/29 13:00:24;;;;;;;4.40;1.92;;;;;;;;;;4248992;33;20050;-82
2023/07/29 13:02:51;;;;;;;3.17;2.08;;;;;;;;;;4249908;33;20072;-86
2023/07/29 13:05:16;;;;;;;5.25;2.05;;;;;;;;;;4251280;33;20038;-87
2023/07/29 13:07:43;;;;;;;2.10;2.00;;;;;;;;;;4253613;33;20063;-85
2023/07/29 13:10:16;;;;;;;1.83;1.83;;;;;;;;;;4252997;33;20054;-81
2023/07/29 13:12:42;;;;;;;1.80;1.80;;;;;;;;;;4251737;33;20050;-83
2023/07/29 13:15:08;;;;;;;4.22;2.22;;;;;;;;;;4252966;33;20046;-82
2023/07/29 13:17:34;;;;;;;1.90;1.80;;;;;;;;;;4266414;33;20092;-86
2023/07/29 13:20:00;;;;;;;2.10;1.90;;;;;;;;;;4282978;33;20037;-87
2023/07/29 13:22:27;;;;;;;2.28;2.08;;;;;;;;;;4279771;33;20061;-81
2023/07/29 13:24:53;;;;;;;2.00;1.90;;;;;;;;;;4280054;33;20467;-84
2023/07/29 13:27:19;;;;;;;1.62;1.45;;;;;;;;;;4250469;33;20504;-88
2023/07/29 13:29:46;;;;;;;2.78;2.00;;;;;;;;;;4241145;33;20104;-88
2023/07/29 13:32:14;;;;;;;2.40;2.30;;;;;;;;;;4236715;33;20051;-80
2023/07/29 13:34:40;;;;;;;2.65;2.10;;;;;;;;;;4232988;33;20058;-82
2023/07/29 13:37:06;;;;;;;5.35;2.55;;;;;;;;;;4234251;33;20063;-82
2023/07/29 13:39:32;;;;;;;2.35;2.00;;;;;;;;;;4235026;33;21044;-83
2023/07/29 13:41:58;;;;;;;2.05;1.95;;;;;;;;;;4227142;33;20094;-82
2023/07/29 13:44:25;;;;;;;2.08;1.98;;;;;;;;;;4223547;34;20039;-79
2023/07/29 13:46:51;;;;;;;2.37;2.28;;;;;;;;;;4224019;34;20083;-81
2023/07/29 13:49:17;;;;;;;3.53;2.22;;;;;;;;;;4222016;34;20047;-83
2023/07/29 13:51:44;;;;;;;1.73;1.73;;;;;;;;;;4224017;34;20077;-84
2023/07/29 13:54:15;;;;;;;3.47;2.25;;;;;;;;;;4224729;34;20051;-80
2023/07/29 13:56:42;;;;;;;2.10;2.00;;;;;;;;;;4227377;34;20080;-83
2023/07/29 13:59:08;;;;;;;1.98;1.87;;;;;;;;;;4244381;33;20050;-86
2023/07/29 14:01:34;;;;;;;2.10;2.00;;;;;;;;;;4251466;33;20089;-86
2023/07/29 14:04:00;;;;;;;1.70;1.70;;;;;;;;;;4254111;33;20453;-85
2023/07/29 14:06:26;;;;;;;4.28;2.62;;;;;;;;;;4238243;33;20072;-85
2023/07/29 14:08:52;;;;;;;2.58;2.37;;;;;;;;;;4238520;33;20055;-84
2023/07/29 14:11:19;;;;;;;2.97;2.78;;;;;;;;;;4237098;33;20102;-86
2023/07/29 14:13:45;;;;;;;1.87;1.77;;;;;;;;;;4237990;33;20047;-84
2023/07/29 14:16:11;;;;;;;1.85;1.75;;;;;;;;;;4236715;33;20058;-84
2023/07/29 14:18:39;;;;;;;1.90;1.75;;;;;;;;;;4224044;34;20508;-84
2023/07/29 14:21:05;;;;;;;3.67;2.83;;;;;;;;;;4224171;34;20081;-85
2023/07/29 14:23:37;;;;;;;2.42;1.70;;;;;;;;;;4222093;34;20047;-84
2023/07/29 14:26:04;;;;;;;2.85;2.62;;;;;;;;;;4224259;34;20078;-84
2023/07/29 14:28:30;;;;;;;2.12;2.00;;;;;;;;;;4236854;33;20515;-84
2023/07/29 14:30:56;;;;;;;6.43;2.35;;;;;;;;;;4237870;33;20068;-84
2023/07/29 14:33:23;;;;;;;4.00;2.17;;;;;;;;;;4236925;33;20893;-83
2023/07/29 14:35:49;;;;;;;1.98;1.73;;;;;;;;;;4209719;34;20112;-82
2023/07/29 14:38:15;;;;;;;2.03;1.92;;;;;;;;;;4209876;34;20377;-83
2023/07/29 14:40:42;;;;;;;2.10;2.00;;;;;;;;;;4223577;34;20424;-84
2023/07/29 14:43:08;;;;;;;2.15;1.95;;;;;;;;;;4224309;34;20031;-84
2023/07/29 14:45:34;;;;;;;1.80;1.70;;;;;;;;;;4222280;34;20047;-84
2023/07/29 14:48:00;;;;;;;2.55;2.35;;;;;;;;;;4230230;33;20078;-84
2023/07/29 14:50:27;;;;;;;1.83;1.70;;;;;;;;;;4198846;34;20077;-83
2023/07/29 14:52:52;;;;;;;3.83;2.67;;;;;;;;;;4201351;34;20032;-84
2023/07/29 14:55:20;;;;;;;2.50;2.35;;;;;;;;;;4202819;34;20625;-84
2023/07/29 14:57:46;;;;;;;2.17;1.87;;;;;;;;;;4198186;34;20035;-84
2023/07/29 15:00:12;;;;;;;3.42;1.62;;;;;;;;;;4199131;34;20535;-84
2023/07/29 15:02:40;;;;;;;2.08;1.90;;;;;;;;;;4198404;34;20602;-86
2023/07/29 15:05:06;;;;;;;2.17;2.08;;;;;;;;;;4198722;34;20047;-86
2023/07/29 15:07:32;;;;;;;2.28;2.12;;;;;;;;;;4219395;34;20035;-85
2023/07/29 15:09:58;;;;;;;8.15;1.80;;;;;;;;;;4225544;34;20102;-85
2023/07/29 15:12:24;;;;;;;6.00;3.08;;;;;;;;;;4226404;34;20115;-85
2023/07/29 15:14:52;;;;;;;1.70;1.60;;;;;;;;;;4225029;34;20068;-87
2023/07/29 15:17:18;;;;;;;2.00;1.90;;;;;;;;;;4226415;34;20042;-86
2023/07/29 15:19:44;;;;;;;3.17;2.35;;;;;;;;;;4223210;34;20043;-86
2023/07/29 15:22:10;;;;;;;2.78;2.62;;;;;;;;;;4221792;34;20767;-86
2023/07/29 15:24:38;;;;;;;2.97;2.78;;;;;;;;;;4224607;34;20070;-87
2023/07/29 15:27:04;;;;;;;2.20;2.10;;;;;;;;;;4229657;33;20072;-87
2023/07/29 15:29:32;;;;;;;2.33;2.22;;;;;;;;;;4267725;33;20064;-86
2023/07/29 15:31:58;;;;;;;4.78;2.03;;;;;;;;;;4268884;33;20046;-86
2023/07/29 15:34:25;;;;;;;5.22;2.10;;;;;;;;;;4268670;33;20062;-86
2023/07/29 15:36:51;;;;;;;5.50;2.42;;;;;;;;;;4269478;33;20038;-86
2023/07/29 15:39:17;;;;;;;1.60;1.60;;;;;;;;;;4268776;33;20572;-84
2023/07/29 15:41:43;;;;;;;8.32;2.08;;;;;;;;;;4268356;33;20050;-85
2023/07/29 15:44:09;;;;;;;3.53;3.22;;;;;;;;;;4269249;33;20221;-85
2023/07/29 15:46:35;;;;;;;7.30;2.30;;;;;;;;;;4270060;33;20067;-86
2023/07/29 15:49:02;;;;;;;2.72;2.47;;;;;;;;;;4268407;33;20444;-85
2023/07/29 15:51:28;;;;;;;2.25;2.15;;;;;;;;;;4268820;33;20068;-86
2023/07/29 15:53:54;;;;;;;4.45;1.92;;;;;;;;;;4268910;33;20062;-85
2023/07/29 15:56:20;;;;;;;2.17;1.98;;;;;;;;;;4271739;33;20056;-86
2023/07/29 15:58:46;;;;;;;2.40;2.17;;;;;;;;;;4270650;33;20045;-86
2023/07/29 16:01:12;;;;;;;2.20;2.00;;;;;;;;;;4257687;33;20076;-85
2023/07/29 16:03:40;;;;;;;4.68;2.33;;;;;;;;;;4255235;33;20545;-86
2023/07/29 16:06:06;;;;;;;3.70;1.95;;;;;;;;;;4255198;33;20194;-86
2023/07/29 16:08:33;;;;;;;3.85;1.92;;;;;;;;;;4254472;33;20453;-85
2023/07/29 16:10:59;;;;;;;2.53;2.08;;;;;;;;;;4223345;33;20060;-85
2023/07/29 16:13:25;;;;;;;4.50;2.03;;;;;;;;;;4225654;33;20054;-84
2023/07/29 16:15:51;;;;;;;5.87;2.53;;;;;;;;;;4225771;33;20079;-84
2023/07/29 16:18:18;;;;;;;2.92;2.50;;;;;;;;;;4229978;33;20062;-85
2023/07/29 16:20:50;;;;;;;4.35;2.50;;;;;;;;;;4225901;33;20043;-86
2023/07/29 16:23:17;;;;;;;2.90;2.03;;;;;;;;;;4222147;33;20055;-84
2023/07/29 16:25:43;;;;;;;11.25;2.35;;;;;;;;;;4236020;33;20039;-83
2023/07/29 16:28:09;;;;;;;3.15;2.20;;;;;;;;;;4234495;33;20059;-79
2023/07/29 16:30:36;;;;;;;4.95;1.83;;;;;;;;;;4236330;33;20062;-83